Time;durP1;ratioP1;P1;durP2;ratioP2;P2;SDS_P1;SDS_P2;PMS_P1;PMS_P2;Temp;Humidity;BMP_temperature;BMP_pressure;BME280_temperature;BME280_humidity;BME280_pressure;Samples;Min_cycle;Max_cycle;Signal;HPM_P1;HPM_P2
2022/06/12 00:00:41;;;;;;;202.75;191.95;;;;;;;19.65;68.06;97265.81;5075261;28;20189;-68
2022/06/12 00:03:10;;;;;;;270.70;256.35;;;;;;;19.46;69.17;97272.78;5075075;28;20182;-67
2022/06/12 00:05:39;;;;;;;166.85;158.00;;;;;;;19.29;70.22;97275.72;5075089;28;20197;-67
2022/06/12 00:08:06;;;;;;;73.03;68.80;;;;;;;19.28;70.02;97276.03;5075233;28;20212;-67
2022/06/12 00:10:34;;;;;;;99.53;94.07;;;;;;;19.39;69.27;97266.94;5073123;28;20213;-67
2022/06/12 00:13:00;;;;;;;145.88;138.13;;;;;;;19.26;69.89;97270.16;5075806;28;20264;-67
2022/06/12 00:15:28;;;;;;;119.43;113.00;;;;;;;19.33;69.40;97265.38;5075171;28;20205;-67
2022/06/12 00:17:53;;;;;;;66.75;63.15;;;;;;;19.15;70.09;97263.28;5074478;28;20666;-67
2022/06/12 00:20:22;;;;;;;83.93;79.07;;;;;;;19.14;70.36;97267.78;5075382;28;20190;-66
2022/06/12 00:22:48;;;;;;;127.88;120.88;;;;;;;18.99;70.81;97260.66;5074774;28;20248;-67
2022/06/12 00:25:15;;;;;;;208.77;197.43;;;;;;;19.11;70.35;97258.47;5075070;28;20193;-68
2022/06/12 00:27:43;;;;;;;277.95;262.83;;;;;;;19.27;69.93;97258.47;5073751;28;20196;-67
2022/06/12 00:30:12;;;;;;;271.40;256.98;;;;;;;18.99;70.97;97260.66;5074815;28;20201;-67
2022/06/12 00:32:39;;;;;;;173.55;164.25;;;;;;;19.13;70.86;97258.22;5074542;28;20194;-68
2022/06/12 00:35:07;;;;;;;75.88;71.78;;;;;;;18.96;71.80;97261.19;5074796;28;20188;-67
2022/06/12 00:37:33;;;;;;;50.67;47.20;;;;;;;19.17;70.79;97264.59;5073964;28;20239;-67
2022/06/12 00:39:59;;;;;;;47.97;45.10;;;;;;;18.92;71.65;97265.44;5074340;28;20185;-67
2022/06/12 00:42:31;;;;;;;56.42;53.00;;;;;;;18.97;71.49;97261.97;5072899;28;20217;-67
2022/06/12 00:44:59;;;;;;;88.75;83.68;;;;;;;18.99;71.22;97265.19;5074390;28;20262;-66
2022/06/12 00:47:26;;;;;;;130.40;123.28;;;;;;;19.05;71.25;97258.78;5074339;28;20181;-67
2022/06/12 00:49:55;;;;;;;159.65;151.07;;;;;;;18.86;72.05;97265.72;5074337;28;20208;-68
2022/06/12 00:52:33;;;;;;;200.80;189.85;;;;;;;18.65;73.29;97260.44;5074150;28;20185;-67
2022/06/12 00:55:24;;;;;;;249.40;236.18;;;;;;;18.49;74.29;97268.63;5073870;28;20552;-67
2022/06/12 00:57:53;;;;;;;165.68;156.35;;;;;;;18.68;73.70;97259.06;5064672;28;20181;-68
2022/06/12 01:00:18;;;;;;;170.57;161.35;;;;;;;18.41;75.29;97259.31;5074268;28;20192;-67
2022/06/12 01:02:44;;;;;;;203.02;192.00;;;;;;;18.56;74.81;97259.34;5073811;28;21155;-67
2022/06/12 01:07:59;;;;;;;115.35;108.57;;;;;;;18.60;74.67;97251.66;5074585;28;20570;-68
2022/06/12 01:10:28;;;;;;;104.57;98.80;;;;;;;18.61;74.57;97248.72;5071920;28;20263;-68
2022/06/12 01:13:11;;;;;;;89.00;84.07;;;;;;;18.33;76.22;97254.53;5073636;28;20188;-67
2022/06/12 01:15:42;;;;;;;89.90;85.03;;;;;;;18.38;76.03;97254.56;5074160;28;20169;-66
2022/06/12 01:18:11;;;;;;;89.80;84.75;;;;;;;18.25;76.92;97247.09;5073979;28;20189;-67
2022/06/12 01:20:44;;;;;;;92.63;87.63;;;;;;;18.46;76.06;97245.25;5073900;28;20184;-68
2022/06/12 01:23:24;;;;;;;110.10;103.45;;;;;;;18.27;76.57;97250.28;5073669;28;20264;-68
2022/06/12 01:26:00;;;;;;;144.68;137.10;;;;;;;18.22;76.69;97247.63;5069177;28;20560;-67
2022/06/12 01:28:44;;;;;;;265.98;252.30;;;;;;;18.33;76.58;97248.44;5069062;28;20184;-67
2022/06/12 01:31:32;;;;;;;398.45;376.52;;;;;;;18.25;76.99;97252.41;5065873;28;20205;-67
2022/06/12 01:34:26;;;;;;;514.27;484.87;;;;;;;18.23;77.28;97243.91;5073615;28;20181;-67
2022/06/12 01:37:07;;;;;;;406.73;383.70;;;;;;;18.21;77.76;97246.84;5072897;28;20215;-67
2022/06/12 01:39:41;;;;;;;207.07;195.90;;;;;;;18.38;77.08;97246.59;5055140;28;20197;-67
2022/06/12 01:42:19;;;;;;;213.85;202.23;;;;;;;18.15;78.06;97239.94;5065403;28;20182;-68
2022/06/12 01:45:07;;;;;;;207.05;196.02;;;;;;;18.18;78.52;97251.84;5073079;28;20653;-67
2022/06/12 01:48:02;;;;;;;273.27;258.10;;;;;;;18.04;79.08;97242.81;5073156;28;20173;-67
2022/06/12 01:50:33;;;;;;;305.03;287.80;;;;;;;18.12;78.67;97242.28;5072327;28;20553;-68
2022/06/12 01:53:04;;;;;;;325.97;306.87;;;;;;;18.05;78.55;97245.22;5073250;28;20178;-67
2022/06/12 01:55:52;;;;;;;335.23;315.67;;;;;;;17.92;78.89;97240.41;5073521;28;20211;-67
2022/06/12 01:58:36;;;;;;;331.87;312.30;;;;;;;17.77;79.67;97235.88;5062382;28;20193;-68
2022/06/12 02:01:14;;;;;;;299.65;282.50;;;;;;;17.77;79.84;97237.72;5072790;28;20182;-67
2022/06/12 02:03:53;;;;;;;164.43;155.40;;;;;;;18.12;78.16;97245.75;5072917;28;20218;-67
2022/06/12 02:06:40;;;;;;;165.53;156.60;;;;;;;17.77;80.12;97229.78;5073140;28;20189;-67
2022/06/12 02:09:21;;;;;;;148.65;140.20;;;;;;;17.64;81.26;97233.69;5070301;28;20181;-67
2022/06/12 02:14:48;;;;;;;233.20;220.43;;;;;;;17.49;83.09;97225.66;5072583;28;20184;-68
2022/06/12 02:17:20;;;;;;;125.50;118.17;;;;;;;17.50;83.28;97232.53;5057765;28;20219;-67
2022/06/12 02:19:48;;;;;;;59.90;55.93;;;;;;;17.48;83.87;97228.56;5072714;28;20174;-67
2022/06/12 02:22:19;;;;;;;258.30;244.03;;;;;;;17.67;83.20;97230.50;5072782;28;20531;-68
2022/06/12 02:24:50;;;;;;;366.13;345.80;;;;;;;17.55;83.72;97215.88;5072571;28;20591;-68
2022/06/12 02:27:29;;;;;;;353.90;334.35;;;;;;;17.49;84.45;97230.97;5060112;28;20212;-67
2022/06/12 02:29:58;;;;;;;310.90;294.17;;;;;;;17.45;84.61;97228.03;5072239;28;20284;-67
2022/06/12 02:32:34;;;;;;;283.83;268.40;;;;;;;17.48;84.32;97228.56;5072778;28;20608;-67
2022/06/12 02:35:15;;;;;;;213.00;201.57;;;;;;;17.50;84.52;97237.06;5072442;28;20671;-67
2022/06/12 02:37:46;;;;;;;136.60;128.73;;;;;;;17.68;83.64;97236.63;5072706;28;20575;-67
2022/06/12 02:40:27;;;;;;;140.70;132.50;;;;;;;17.44;85.17;97234.38;5072168;28;20177;-67
2022/06/12 02:42:57;;;;;;;178.77;168.65;;;;;;;17.30;86.22;97235.91;5072007;28;20173;-67
2022/06/12 02:45:33;;;;;;;247.27;233.13;;;;;;;17.64;84.67;97235.56;5072443;28;20642;-68
2022/06/12 02:48:00;;;;;;;258.80;244.50;;;;;;;17.45;85.40;97237.81;5072420;28;20639;-67
2022/06/12 02:50:31;;;;;;;272.45;257.45;;;;;;;17.35;86.49;97238.59;5071818;28;20560;-67
2022/06/12 02:53:26;;;;;;;230.30;218.07;;;;;;;17.32;86.79;97233.81;5072004;28;20260;-67
2022/06/12 02:56:06;;;;;;;129.90;122.80;;;;;;;17.35;86.24;97233.28;5072251;28;20177;-68
2022/06/12 02:58:45;;;;;;;75.15;70.65;;;;;;;17.28;86.91;97240.66;5072234;28;20183;-67
2022/06/12 03:01:14;;;;;;;187.27;176.67;;;;;;;17.23;87.22;97245.13;5070783;28;20238;-67
2022/06/12 03:04:04;;;;;;;384.27;362.20;;;;;;;17.08;88.24;97237.91;5071491;28;20296;-68
2022/06/12 03:06:29;;;;;;;377.83;356.30;;;;;;;17.21;87.81;97240.13;5071347;28;20264;-68
2022/06/12 03:08:58;;;;;;;248.57;235.13;;;;;;;17.46;85.96;97242.06;5070067;28;20208;-68
2022/06/12 03:11:23;;;;;;;172.57;163.23;;;;;;;17.21;87.37;97239.31;5072451;28;20189;-67
2022/06/12 03:13:51;;;;;;;151.50;143.33;;;;;;;16.96;88.41;97239.97;5071820;28;20234;-68
2022/06/12 03:16:16;;;;;;;116.85;110.40;;;;;;;16.78;90.37;97238.50;5071805;28;20842;-67
2022/06/12 03:18:48;;;;;;;94.77;89.37;;;;;;;16.96;89.28;97234.66;5071536;28;20196;-66
2022/06/12 03:21:35;;;;;;;102.93;97.03;;;;;;;16.86;89.69;97237.25;5065322;28;20660;-67
2022/06/12 03:24:18;;;;;;;127.87;120.53;;;;;;;16.63;91.11;97236.56;5071852;28;20200;-68
2022/06/12 03:27:00;;;;;;;121.10;114.30;;;;;;;16.67;90.80;97236.06;5057224;28;20259;-68
2022/06/12 03:29:38;;;;;;;103.67;97.90;;;;;;;16.57;90.67;97237.56;5071902;28;20211;-67
2022/06/12 03:32:21;;;;;;;113.73;107.30;;;;;;;16.63;90.02;97236.56;5071936;28;20178;-68
2022/06/12 03:35:08;;;;;;;156.23;147.67;;;;;;;16.87;88.97;97239.66;5071214;28;20680;-68
2022/06/12 03:38:01;;;;;;;264.10;249.17;;;;;;;16.90;88.22;97240.97;5071770;28;20343;-67
2022/06/12 03:40:42;;;;;;;188.20;177.87;;;;;;;17.25;86.64;97245.69;5070256;28;20205;-67
2022/06/12 03:43:17;;;;;;;132.47;125.03;;;;;;;17.05;86.96;97241.09;5071256;28;20461;-67
2022/06/12 03:45:51;;;;;;;156.83;148.47;;;;;;;16.98;86.84;97246.63;5072051;28;20181;-68
2022/06/12 03:48:33;;;;;;;242.70;229.17;;;;;;;16.91;87.37;97253.97;5072039;28;20181;-67
2022/06/12 03:50:58;;;;;;;124.20;117.13;;;;;;;17.25;85.17;97249.13;5071199;28;20189;-68
2022/06/12 03:53:46;;;;;;;97.35;91.60;;;;;;;17.41;84.22;97247.34;5071833;28;20184;-67
2022/06/12 03:59:20;;;;;;;123.75;116.90;;;;;;;17.16;85.12;97248.03;5071327;28;20214;-68
2022/06/12 04:01:47;;;;;;;164.55;155.32;;;;;;;17.75;82.00;97245.94;5070988;28;20176;-68
2022/06/12 04:04:15;;;;;;;213.13;201.30;;;;;;;17.65;81.74;97247.75;5053449;28;20247;-67
2022/06/12 04:06:42;;;;;;;318.85;300.98;;;;;;;18.21;79.20;97252.16;5071447;28;20185;-67
2022/06/12 04:09:16;;;;;;;332.33;313.20;;;;;;;18.09;79.38;97248.13;5069299;28;20185;-67
2022/06/12 04:11:51;;;;;;;287.17;270.83;;;;;;;18.07;80.10;97242.28;5071280;28;20281;-68
2022/06/12 04:14:19;;;;;;;226.55;213.77;;;;;;;18.29;78.55;97241.00;5071332;28;20212;-67
2022/06/12 04:16:49;;;;;;;213.85;201.85;;;;;;;18.83;76.31;97240.50;5071245;28;20229;-67
2022/06/12 04:19:20;;;;;;;193.20;182.60;;;;;;;19.01;74.89;97244.44;5074816;28;20178;-68
2022/06/12 04:21:52;;;;;;;227.52;214.82;;;;;;;18.52;76.71;97242.31;5075034;28;20618;-68
2022/06/12 04:24:25;;;;;;;288.23;271.15;;;;;;;18.62;76.98;97247.66;5074746;28;20549;-68
2022/06/12 04:27:12;;;;;;;213.25;200.82;;;;;;;18.95;75.25;97242.84;5073770;28;20674;-67
2022/06/12 04:29:47;;;;;;;332.10;312.33;;;;;;;18.99;74.97;97241.25;5074820;28;20204;-67
2022/06/12 04:32:13;;;;;;;373.17;350.95;;;;;;;19.54;72.62;97242.19;5074789;28;20169;-68
2022/06/12 04:34:41;;;;;;;295.23;278.40;;;;;;;19.64;71.51;97247.47;5074736;28;20634;-67
2022/06/12 04:37:16;;;;;;;362.17;341.77;;;;;;;20.13;69.81;97237.59;5058276;28;20193;-68
2022/06/12 04:39:43;;;;;;;395.38;373.73;;;;;;;20.60;67.98;97241.56;5074713;28;20220;-68
2022/06/12 04:42:09;;;;;;;320.23;302.60;;;;;;;20.75;67.18;97244.88;5074293;28;20197;-67
2022/06/12 04:44:35;;;;;;;309.73;292.50;;;;;;;21.07;65.14;97246.19;5074426;28;20692;-67
2022/06/12 04:47:03;;;;;;;232.15;219.02;;;;;;;20.91;66.46;97242.88;5074447;28;20675;-68
2022/06/12 04:49:31;;;;;;;174.50;164.55;;;;;;;20.97;65.36;97243.63;5074397;28;20205;-67
2022/06/12 04:51:58;;;;;;;144.82;136.95;;;;;;;21.02;64.83;97248.91;5074893;28;20221;-68
2022/06/12 04:54:26;;;;;;;169.30;159.85;;;;;;;21.25;64.50;97253.50;5074352;28;20181;-68
2022/06/12 04:56:51;;;;;;;177.13;167.65;;;;;;;21.07;64.47;97249.63;5074286;28;20181;-68
2022/06/12 04:59:19;;;;;;;176.32;166.93;;;;;;;21.22;64.69;97259.41;5074150;28;20188;-68
2022/06/12 05:01:45;;;;;;;194.98;184.63;;;;;;;21.46;64.20;97256.72;5073899;28;20197;-67
2022/06/12 05:04:11;;;;;;;224.52;212.48;;;;;;;21.30;63.91;97257.97;5056111;28;20262;-67
2022/06/12 05:06:37;;;;;;;207.00;196.00;;;;;;;21.73;63.05;97253.47;5054173;28;20196;-68
2022/06/12 05:09:04;;;;;;;235.55;222.80;;;;;;;21.87;62.75;97252.47;5073576;28;20545;-68
2022/06/12 05:11:30;;;;;;;261.58;247.45;;;;;;;22.04;61.90;97261.91;5074309;28;20204;-67
2022/06/12 05:13:56;;;;;;;281.98;266.55;;;;;;;22.00;62.22;97252.88;5055886;28;20182;-67
2022/06/12 05:16:28;;;;;;;269.48;254.95;;;;;;;22.37;61.23;97258.22;5074309;28;20189;-68
2022/06/12 05:18:53;;;;;;;204.13;193.25;;;;;;;22.41;60.52;97261.88;5073977;28;20235;-68
2022/06/12 05:21:19;;;;;;;184.82;174.95;;;;;;;22.23;61.71;97257.38;5074600;28;20193;-68
2022/06/12 05:23:44;;;;;;;188.25;178.00;;;;;;;22.69;59.92;97260.91;5055812;28;20590;-67
2022/06/12 05:26:15;;;;;;;191.73;181.52;;;;;;;22.68;59.69;97258.53;5064055;28;20229;-69
2022/06/12 05:28:40;;;;;;;173.40;163.88;;;;;;;22.17;61.44;97258.53;5073596;28;20256;-69
2022/06/12 05:31:05;;;;;;;161.35;152.77;;;;;;;23.02;59.27;97259.03;5073512;28;20630;-68
2022/06/12 05:33:31;;;;;;;199.63;188.68;;;;;;;22.88;59.79;97263.56;5073719;28;20192;-68
2022/06/12 05:35:56;;;;;;;193.52;183.00;;;;;;;22.88;59.41;97257.44;5073551;28;20221;-68
2022/06/12 05:38:22;;;;;;;189.02;178.88;;;;;;;22.97;59.47;97259.13;5059200;28;20232;-69
2022/06/12 05:40:47;;;;;;;165.27;156.32;;;;;;;23.17;59.00;97264.13;5072324;28;20327;-68
2022/06/12 05:43:13;;;;;;;216.00;204.63;;;;;;;23.36;57.79;97261.34;5073166;28;20254;-68
2022/06/12 05:45:38;;;;;;;165.10;156.13;;;;;;;23.32;57.92;97262.25;5073581;28;20194;-67
2022/06/12 05:48:13;;;;;;;178.68;168.82;;;;;;;23.38;57.42;97261.84;5072850;28;20188;-68
2022/06/12 05:50:50;;;;;;;221.55;209.73;;;;;;;23.50;57.46;97259.50;5073033;28;20262;-68
2022/06/12 05:53:16;;;;;;;142.18;134.57;;;;;;;23.68;56.61;97259.72;5073090;28;20212;-68
2022/06/12 05:55:42;;;;;;;127.57;120.72;;;;;;;23.35;57.89;97259.00;5073105;28;20318;-68
2022/06/12 05:58:08;;;;;;;127.97;121.05;;;;;;;23.87;56.29;97255.81;5073098;28;20195;-69
2022/06/12 06:00:33;;;;;;;157.40;148.70;;;;;;;24.02;56.08;97252.78;5072828;28;20264;-68
2022/06/12 06:02:59;;;;;;;125.38;118.47;;;;;;;24.04;56.03;97260.53;5073177;28;20575;-69
2022/06/12 06:05:25;;;;;;;124.53;117.63;;;;;;;23.97;56.41;97268.19;5072786;28;20241;-68
2022/06/12 06:07:50;;;;;;;113.03;106.82;;;;;;;24.14;55.72;97259.50;5058702;28;20202;-68
2022/06/12 06:10:20;;;;;;;122.57;115.90;;;;;;;23.97;56.26;97271.66;5072819;28;20201;-69
2022/06/12 06:12:45;;;;;;;120.82;114.40;;;;;;;24.37;54.90;97267.31;5072977;28;20335;-69
2022/06/12 06:15:12;;;;;;;126.10;119.30;;;;;;;24.14;55.96;97264.88;5073176;28;20273;-67
2022/06/12 06:17:38;;;;;;;113.35;106.97;;;;;;;24.30;55.11;97264.25;5073237;28;20619;-67
2022/06/12 06:20:05;;;;;;;114.55;107.95;;;;;;;24.48;54.71;97259.81;5054856;28;20192;-67
2022/06/12 06:22:31;;;;;;;117.03;110.70;;;;;;;24.28;55.23;97265.66;5072658;28;20272;-67
2022/06/12 06:24:57;;;;;;;131.88;124.72;;;;;;;24.40;54.87;97261.38;5071972;28;20177;-67
2022/06/12 06:27:23;;;;;;;149.32;141.18;;;;;;;24.28;55.63;97263.00;5073219;28;20193;-68
2022/06/12 06:29:48;;;;;;;135.75;128.10;;;;;;;24.67;54.51;97260.44;5054454;28;20322;-67
2022/06/12 06:32:14;;;;;;;162.63;153.82;;;;;;;24.47;55.29;97262.81;5072423;28;20276;-67
2022/06/12 06:34:40;;;;;;;156.25;147.75;;;;;;;24.57;55.13;97270.63;5072594;28;20195;-67
2022/06/12 06:37:08;;;;;;;111.90;105.75;;;;;;;24.74;55.23;97268.06;5072174;28;20181;-67
2022/06/12 06:39:34;;;;;;;105.10;99.45;;;;;;;24.77;55.19;97264.75;5071712;28;20189;-67
2022/06/12 06:41:59;;;;;;;111.72;105.47;;;;;;;25.02;54.13;97266.81;5071521;28;20628;-67
2022/06/12 06:47:09;;;;;;;111.57;105.60;;;;;;;24.83;54.71;97271.59;5072259;28;20192;-67
2022/06/12 06:49:35;;;;;;;121.22;114.40;;;;;;;24.71;55.44;97282.06;5072621;28;20208;-67
2022/06/12 06:52:01;;;;;;;108.30;102.32;;;;;;;25.05;54.26;97279.63;5072091;28;20231;-67
2022/06/12 06:54:26;;;;;;;109.30;103.43;;;;;;;25.02;54.58;97277.56;5072314;28;20191;-67
2022/06/12 06:56:52;;;;;;;132.57;125.20;;;;;;;24.92;55.33;97277.81;5072563;28;20286;-67
2022/06/12 06:59:18;;;;;;;121.80;115.15;;;;;;;24.77;55.56;97276.28;5072119;28;20221;-68
2022/06/12 07:01:44;;;;;;;94.05;88.82;;;;;;;24.34;56.52;97273.28;5071855;28;20208;-68
2022/06/12 07:04:09;;;;;;;97.10;91.88;;;;;;;23.56;59.25;97285.09;5070945;28;20231;-67
2022/06/12 07:06:35;;;;;;;143.80;135.85;;;;;;;23.70;59.94;97284.28;5070191;28;20185;-67
2022/06/12 07:09:01;;;;;;;144.35;136.13;;;;;;;24.88;56.04;97276.84;5071994;28;20648;-67
2022/06/12 07:11:27;;;;;;;136.85;129.35;;;;;;;24.90;55.02;97280.03;5072054;28;20205;-69
2022/06/12 07:13:54;;;;;;;175.07;165.77;;;;;;;25.19;52.04;97276.84;5054172;28;20209;-68
2022/06/12 07:16:20;;;;;;;176.00;166.85;;;;;;;25.76;50.51;97277.75;5072477;28;20185;-68
2022/06/12 07:18:46;;;;;;;178.98;169.85;;;;;;;25.11;49.26;97285.66;5071984;28;20649;-68
2022/06/12 07:21:12;;;;;;;177.82;168.57;;;;;;;23.95;51.68;97279.22;5072235;28;20186;-68
2022/06/12 07:23:40;;;;;;;159.98;151.68;;;;;;;25.18;49.85;97281.44;5072580;28;20227;-69
2022/06/12 07:26:14;;;;;;;171.23;162.52;;;;;;;25.09;49.29;97277.13;5067234;28;20192;-68
2022/06/12 07:28:40;;;;;;;151.25;143.32;;;;;;;25.21;49.42;97271.97;5071996;28;20180;-68
2022/06/12 07:31:07;;;;;;;151.15;143.48;;;;;;;25.84;48.47;97274.28;5071794;28;20197;-69
2022/06/12 07:33:33;;;;;;;188.80;179.15;;;;;;;25.28;51.62;97280.38;5072346;28;20934;-70
2022/06/12 07:35:58;;;;;;;154.27;146.07;;;;;;;24.93;54.26;97275.94;5071941;28;20185;-68
2022/06/12 07:38:27;;;;;;;167.98;158.93;;;;;;;24.88;54.13;97271.50;5071717;28;20629;-68
2022/06/12 07:40:57;;;;;;;158.43;150.20;;;;;;;24.71;55.67;97269.47;5071299;28;20706;-68
2022/06/12 07:43:23;;;;;;;155.32;146.95;;;;;;;25.01;53.69;97265.25;5071737;28;20185;-68
2022/06/12 07:45:51;;;;;;;163.18;154.20;;;;;;;25.59;52.22;97262.38;5072448;28;20181;-68
2022/06/12 07:48:18;;;;;;;161.70;153.15;;;;;;;24.89;55.35;97273.06;5071807;28;20181;-68
2022/06/12 07:50:43;;;;;;;142.38;134.85;;;;;;;24.44;56.89;97267.69;5071691;28;20197;-69
2022/06/12 07:53:10;;;;;;;127.10;120.35;;;;;;;24.13;58.09;97258.72;5075896;28;20239;-68
2022/06/12 07:55:35;;;;;;;147.98;140.00;;;;;;;24.34;57.98;97257.22;5075809;28;20242;-70
2022/06/12 07:58:01;;;;;;;169.27;160.25;;;;;;;24.27;57.62;97251.47;5075621;28;20189;-68
2022/06/12 08:00:26;;;;;;;228.05;216.00;;;;;;;24.42;57.33;97251.13;5075381;28;20215;-69
2022/06/12 08:02:52;;;;;;;165.38;156.38;;;;;;;24.22;57.27;97258.84;5075509;28;20574;-68
2022/06/12 08:05:19;;;;;;;231.18;218.77;;;;;;;24.74;56.15;97254.66;5073723;28;20189;-68
2022/06/12 08:07:45;;;;;;;245.43;232.13;;;;;;;24.48;56.87;97254.47;5074821;28;20258;-68
2022/06/12 08:10:12;;;;;;;210.68;199.35;;;;;;;24.22;57.54;97248.13;5075349;28;20284;-67
2022/06/12 08:12:40;;;;;;;175.02;165.38;;;;;;;24.56;56.31;97252.94;5057118;28;20259;-68
2022/06/12 08:15:09;;;;;;;149.30;141.05;;;;;;;24.52;55.68;97252.75;5075413;28;20207;-68
2022/06/12 08:17:34;;;;;;;129.50;122.40;;;;;;;24.85;54.49;97261.34;5069201;28;20201;-67
2022/06/12 08:22:44;;;;;;;120.95;114.40;;;;;;;25.15;54.03;97254.44;5074358;28;20215;-68
2022/06/12 08:25:10;;;;;;;128.45;121.57;;;;;;;25.01;53.80;97254.53;5073622;28;20193;-68
2022/06/12 08:27:36;;;;;;;178.60;169.15;;;;;;;24.67;54.37;97255.09;5074593;28;20254;-68
2022/06/12 08:30:03;;;;;;;184.68;174.82;;;;;;;25.07;52.71;97252.50;5073695;28;20270;-67
2022/06/12 08:32:28;;;;;;;166.82;157.93;;;;;;;24.98;52.23;97251.66;5073913;28;20194;-67
2022/06/12 08:34:59;;;;;;;176.98;167.40;;;;;;;25.37;51.94;97249.00;5074780;28;20622;-68
2022/06/12 08:37:30;;;;;;;166.20;157.18;;;;;;;25.48;51.48;97250.31;5074925;28;20242;-68
2022/06/12 08:39:56;;;;;;;160.57;151.80;;;;;;;25.75;50.48;97256.56;5074431;28;20185;-68
2022/06/12 08:42:31;;;;;;;162.50;153.75;;;;;;;25.32;50.90;97249.13;5074219;28;20192;-68
2022/06/12 08:45:22;;;;;;;171.18;162.38;;;;;;;25.50;49.71;97248.09;5074903;28;20189;-68
2022/06/12 08:47:47;;;;;;;157.98;149.70;;;;;;;25.31;49.92;97244.88;5074663;28;20181;-67
2022/06/12 08:50:28;;;;;;;140.82;133.57;;;;;;;25.79;49.09;97244.09;5074829;28;20214;-68
2022/06/12 08:53:06;;;;;;;158.80;150.82;;;;;;;25.85;47.64;97246.34;5073913;28;20177;-68
2022/06/12 08:55:41;;;;;;;117.38;111.05;;;;;;;25.61;48.53;97244.06;5075015;28;20648;-68
2022/06/12 08:58:15;;;;;;;194.45;184.80;;;;;;;25.21;48.84;97247.81;5074625;28;20181;-68
2022/06/12 09:00:41;;;;;;;150.57;142.73;;;;;;;25.67;48.37;97234.75;5074314;28;20180;-68
2022/06/12 09:03:12;;;;;;;145.38;138.00;;;;;;;25.65;47.13;97238.84;5073758;28;20221;-68
2022/06/12 09:05:45;;;;;;;124.07;117.60;;;;;;;25.71;46.99;97234.91;5072644;28;20578;-68
2022/06/12 09:08:38;;;;;;;132.52;125.82;;;;;;;26.28;45.89;97229.47;5074498;28;20189;-69
2022/06/12 09:11:14;;;;;;;366.80;346.48;;;;;;;26.01;45.08;97222.50;5074186;28;20577;-69
2022/06/12 09:14:09;;;;;;;343.20;324.85;;;;;;;25.88;45.42;97226.09;5074101;28;20173;-68
2022/06/12 09:16:50;;;;;;;358.33;339.13;;;;;;;25.76;45.32;97226.72;5056488;28;20193;-68
2022/06/12 09:19:21;;;;;;;432.60;409.45;;;;;;;25.61;44.71;97222.59;5074119;28;20231;-68
2022/06/12 09:22:21;;;;;;;317.50;300.20;;;;;;;25.74;43.84;97220.88;5074094;28;20185;-68
2022/06/12 09:25:01;;;;;;;343.80;324.95;;;;;;;25.78;44.54;97221.03;5057661;28;20220;-68
2022/06/12 09:27:37;;;;;;;369.13;349.13;;;;;;;25.53;45.17;97219.81;5071954;28;20187;-68
2022/06/12 09:30:17;;;;;;;187.35;176.77;;;;;;;25.76;43.91;97220.53;5057068;28;20196;-68
2022/06/12 09:33:01;;;;;;;133.98;126.65;;;;;;;24.90;45.08;97223.72;5073632;28;20660;-70
2022/06/12 09:35:44;;;;;;;255.23;241.40;;;;;;;25.63;44.58;97220.34;5073623;28;20256;-70
2022/06/12 09:38:28;;;;;;;291.13;275.27;;;;;;;25.62;45.05;97218.00;5073583;28;20694;-70
2022/06/12 09:41:17;;;;;;;305.33;288.50;;;;;;;25.55;45.11;97212.25;5072492;28;20181;-69
2022/06/12 09:43:48;;;;;;;313.35;295.90;;;;;;;25.80;45.19;97213.47;5073568;28;20231;-69
2022/06/12 09:46:40;;;;;;;277.15;261.80;;;;;;;25.91;44.19;97212.06;5073165;28;20192;-70
2022/06/12 09:49:40;;;;;;;187.32;177.18;;;;;;;25.78;44.49;97207.59;5073154;28;20197;-70
2022/06/12 09:52:37;;;;;;;219.32;207.30;;;;;;;26.27;44.10;97206.38;5055396;28;20534;-69
2022/06/12 09:55:20;;;;;;;237.27;224.20;;;;;;;26.58;43.82;97206.22;5073249;28;20173;-70
2022/06/12 09:57:57;;;;;;;234.70;221.90;;;;;;;26.91;43.26;97199.19;5072476;28;20588;-70
2022/06/12 10:00:33;;;;;;;133.80;126.32;;;;;;;26.54;43.82;97199.88;5073104;28;20179;-71
2022/06/12 10:03:07;;;;;;;113.65;107.47;;;;;;;26.46;43.75;97194.19;5073492;28;20532;-70
2022/06/12 10:05:41;;;;;;;94.88;89.85;;;;;;;26.56;43.71;97194.97;5071164;28;20200;-70
2022/06/12 10:08:16;;;;;;;101.00;95.68;;;;;;;26.12;44.03;97183.44;5073035;28;20180;-69
2022/06/12 10:10:52;;;;;;;100.38;94.97;;;;;;;26.17;44.47;97180.59;5072799;28;20204;-69
2022/06/12 10:13:57;;;;;;;104.28;98.65;;;;;;;25.85;44.26;97184.56;5073353;28;20184;-69
2022/06/12 10:16:27;;;;;;;94.57;89.38;;;;;;;26.01;44.08;97184.88;5071143;28;20176;-70
2022/06/12 10:19:01;;;;;;;96.53;91.32;;;;;;;26.27;44.03;97183.00;5071063;28;20178;-69
2022/06/12 10:21:27;;;;;;;73.57;69.50;;;;;;;26.05;43.30;97180.44;5072527;28;20187;-69
2022/06/12 10:23:53;;;;;;;69.15;65.15;;;;;;;26.12;42.48;97175.38;5055318;28;20276;-69
2022/06/12 10:26:30;;;;;;;67.70;63.80;;;;;;;26.23;42.29;97173.19;5072351;28;20713;-68
2022/06/12 10:29:12;;;;;;;77.95;73.90;;;;;;;26.15;42.39;97171.25;5070425;28;20173;-70
2022/06/12 10:31:50;;;;;;;64.45;61.03;;;;;;;26.45;41.94;97173.00;5072057;28;20250;-70
2022/06/12 10:34:19;;;;;;;126.30;119.70;;;;;;;26.60;41.48;97172.50;5069238;28;20187;-70
2022/06/12 10:36:45;;;;;;;204.35;193.45;;;;;;;26.59;41.54;97168.22;5061312;28;20181;-70
2022/06/12 10:39:22;;;;;;;203.77;192.80;;;;;;;26.63;42.17;97168.38;5053312;28;20229;-70
2022/06/12 10:42:27;;;;;;;386.55;362.92;;;;;;;26.96;41.18;97168.63;5071900;28;20223;-69
2022/06/12 10:44:58;;;;;;;703.47;653.38;;;;;;;26.68;41.36;97170.91;5081074;28;20202;-69
2022/06/12 10:47:26;;;;;;;758.72;705.22;;;;;;;26.96;41.09;97166.72;5072306;28;20193;-71
2022/06/12 10:50:21;;;;;;;808.80;750.78;;;;;;;26.82;41.42;97158.81;5072076;28;20203;-70
2022/06/12 10:53:13;;;;;;;811.38;757.15;;;;;;;27.17;40.34;97156.81;5053845;28;20189;-71
2022/06/12 10:56:07;;;;;;;823.67;771.00;;;;;;;26.97;40.60;97156.75;5071646;28;20192;-70
2022/06/12 10:59:10;;;;;;;847.40;791.95;;;;;;;26.84;41.26;97150.44;5070363;28;20185;-70
2022/06/12 11:01:41;;;;;;;793.55;742.70;;;;;;;26.94;40.67;97150.09;5071806;28;20181;-70
2022/06/12 11:04:40;;;;;;;815.13;763.05;;;;;;;26.91;40.92;97134.63;5069796;28;20196;-70
2022/06/12 11:07:30;;;;;;;853.05;797.78;;;;;;;26.82;41.07;97137.28;5071837;28;20181;-71
2022/06/12 11:10:20;;;;;;;837.78;781.63;;;;;;;26.78;41.41;97138.28;5071981;28;20592;-70
2022/06/12 11:12:48;;;;;;;841.78;786.65;;;;;;;26.83;41.60;97127.31;5072614;28;20177;-70
2022/06/12 11:15:32;;;;;;;845.05;788.10;;;;;;;26.91;41.28;97123.06;5069238;28;20189;-70
2022/06/12 11:18:19;;;;;;;830.55;775.30;;;;;;;26.71;41.51;97130.69;5071888;28;20184;-71
2022/06/12 11:20:56;;;;;;;828.47;773.10;;;;;;;26.98;41.50;97126.81;5071371;28;20196;-71
2022/06/12 11:23:45;;;;;;;835.45;779.97;;;;;;;27.29;40.85;97121.13;5070318;28;20246;-71
2022/06/12 11:26:40;;;;;;;797.60;746.13;;;;;;;27.64;40.18;97114.41;5072408;28;20173;-71
2022/06/12 11:29:06;;;;;;;726.50;681.13;;;;;;;27.61;39.99;97108.88;5075661;28;20288;-71
2022/06/12 11:31:52;;;;;;;686.47;643.92;;;;;;;27.79;40.39;97115.72;5075678;28;20283;-71
2022/06/12 11:34:44;;;;;;;575.33;539.92;;;;;;;27.61;40.21;97111.59;5075705;28;20553;-71
2022/06/12 11:37:30;;;;;;;596.22;560.75;;;;;;;27.64;40.44;97106.31;5074365;28;21577;-71
2022/06/12 11:40:01;;;;;;;677.80;636.80;;;;;;;27.73;40.98;97106.25;5074982;28;20188;-71
2022/06/12 11:42:45;;;;;;;474.67;446.52;;;;;;;28.15;39.33;97090.06;5075184;28;20173;-71
2022/06/12 11:45:40;;;;;;;402.50;379.42;;;;;;;27.92;39.79;97095.78;5072072;28;20265;-72